Bay Phoenix — A8OE5 — position and weather

sailwx.info

Track history (hours):
 
Tides and Currents Weather Stations Pressure Air Temp Water Temp Dewpoint Dewpoint Depression Visibility Wind Speed Wind Dir Waves Ship Positions

Bay Phoenix

Last reported at 2014-Dec-19 02:30 UTC. Time now 2014-Dec-19 10:50 UTC.
Position N 57°38' E 010°36'.

Length 134 m; draft 4.8 m.

Type: Cargo ship. MMSI: 636015543.

Date/timePositionNaut miles runAvg speedWind from/ knotsBaromVisibWave heightAir tempDewpointWater temp
2014-Dec-19 02:30N 57°38' E 010°36'0 0.0
2014-Dec-19 01:33N 57°38' E 010°36'2 1.7
2014-Dec-19 00:33N 57°37' E 010°39'14 9.6
2014-Dec-18 23:05N 57°36' E 011°05'713.0
2014-Dec-18 22:32N 57°33' E 011°17'1414.0
2014-Dec-18 21:33N 57°22' E 011°31'1414.0
2014-Dec-18 20:32N 57°08' E 011°40'1414.4
2014-Dec-18 19:33N 56°55' E 011°49'1414.0
2014-Dec-18 18:33N 56°42' E 011°56'3013.5
2014-Dec-18 16:21N 56°14' E 012°16'1113.6
2014-Dec-18 15:34N 56°08' E 012°32'1313.3
2014-Dec-18 14:33N 55°56' E 012°43'1212.4
2014-Dec-18 13:33N 55°44' E 012°42'1111.4
2014-Dec-18 12:33N 55°32' E 012°43'1313.0
2014-Dec-18 11:33N 55°19' E 012°41'1515.3
2014-Dec-18 10:34N 55°15' E 013°06'1615.7
2014-Dec-18 09:33N 55°15' E 013°34'1514.8
2014-Dec-18 08:32N 55°14' E 014°00'1414.2
2014-Dec-18 07:33N 55°17' E 014°24'1616.3
2014-Dec-18 06:33N 55°28' E 014°45'1716.7
2014-Dec-18 05:34N 55°36' E 015°11'35015.9
2014-Dec-17 07:31N 59°35' E 023°06'2216.6
2014-Dec-17 06:12N 59°42' E 023°47'7816.6
2014-Dec-17 01:31N 59°59' E 026°18'1616.4
2014-Dec-17 00:32N 60°00' E 026°50'10013.8
2014-Dec-16 17:17N 59°53' E 030°09'  
2014-Dec-12 06:31N 59°58' E 026°33'5617.0
2014-Dec-12 03:13N 59°46' E 024°45'1116.9
2014-Dec-12 02:33N 59°43' E 024°23'2316.9
2014-Dec-12 01:11N 59°36' E 023°40'35715.8
2014-Dec-11 02:32N 55°35' E 015°27'1717.1
2014-Dec-11 01:33N 55°29' E 014°59'1716.8
2014-Dec-11 00:33N 55°21' E 014°34'1716.6
2014-Dec-10 23:33N 55°07' E 014°16'1616.0
2014-Dec-10 22:33N 54°59' E 013°53'7116.3
2014-Dec-10 18:14N 54°24' E 012°06'13810.8
2014-Dec-10 05:23N 56°42' E 011°49'7 8.6
2014-Dec-10 04:34N 56°49' E 011°49'1111.1
2014-Dec-10 03:34N 56°59' E 011°43'1211.6
2014-Dec-10 02:31N 57°11' E 011°35'1111.6
2014-Dec-10 01:33N 57°21' E 011°28'1212.0
2014-Dec-10 00:34N 57°31' E 011°16'1413.8
2014-Dec-09 23:33N 57°41' E 010°57'1414.4
2014-Dec-09 22:33N 57°50' E 010°37'135 9.4
2014-Dec-09 08:11N 56°33' E 007°13'913.8
2014-Dec-09 07:31N 56°25' E 007°05'  
Track history (hours):
 
Tides and Currents Weather Stations Pressure Air Temp Water Temp Dewpoint Dewpoint Depression Visibility Wind Speed Wind Dir Waves Ship Positions

Bay Phoenix

Last reported at 2014-Dec-19 02:30 UTC. Time now 2014-Dec-19 10:50 UTC.
Position N 57°38' E 010°36'.

Length 134 m; draft 4.8 m.

Type: Cargo ship. MMSI: 636015543.

Date/timePositionNaut miles runAvg speedWind from/ knotsBaromVisibWave heightAir tempDewpointWater temp
2014-Dec-19 02:30N 57°38' E 010°36'0 0.0
2014-Dec-19 01:33N 57°38' E 010°36'2 1.7
2014-Dec-19 00:33N 57°37' E 010°39'14 9.6
2014-Dec-18 23:05N 57°36' E 011°05'713.0
2014-Dec-18 22:32N 57°33' E 011°17'1414.0
2014-Dec-18 21:33N 57°22' E 011°31'1414.0
2014-Dec-18 20:32N 57°08' E 011°40'1414.4
2014-Dec-18 19:33N 56°55' E 011°49'1414.0
2014-Dec-18 18:33N 56°42' E 011°56'3013.5
2014-Dec-18 16:21N 56°14' E 012°16'1113.6
2014-Dec-18 15:34N 56°08' E 012°32'1313.3
2014-Dec-18 14:33N 55°56' E 012°43'1212.4
2014-Dec-18 13:33N 55°44' E 012°42'1111.4
2014-Dec-18 12:33N 55°32' E 012°43'1313.0
2014-Dec-18 11:33N 55°19' E 012°41'1515.3
2014-Dec-18 10:34N 55°15' E 013°06'1615.7
2014-Dec-18 09:33N 55°15' E 013°34'1514.8
2014-Dec-18 08:32N 55°14' E 014°00'1414.2
2014-Dec-18 07:33N 55°17' E 014°24'1616.3
2014-Dec-18 06:33N 55°28' E 014°45'1716.7
2014-Dec-18 05:34N 55°36' E 015°11'35015.9
2014-Dec-17 07:31N 59°35' E 023°06'2216.6
2014-Dec-17 06:12N 59°42' E 023°47'7816.6
2014-Dec-17 01:31N 59°59' E 026°18'1616.4
2014-Dec-17 00:32N 60°00' E 026°50'10013.8
2014-Dec-16 17:17N 59°53' E 030°09'  
2014-Dec-12 06:31N 59°58' E 026°33'5617.0
2014-Dec-12 03:13N 59°46' E 024°45'1116.9
2014-Dec-12 02:33N 59°43' E 024°23'2316.9
2014-Dec-12 01:11N 59°36' E 023°40'35715.8
2014-Dec-11 02:32N 55°35' E 015°27'1717.1
2014-Dec-11 01:33N 55°29' E 014°59'1716.8
2014-Dec-11 00:33N 55°21' E 014°34'1716.6
2014-Dec-10 23:33N 55°07' E 014°16'1616.0
2014-Dec-10 22:33N 54°59' E 013°53'7116.3
2014-Dec-10 18:14N 54°24' E 012°06'13810.8
2014-Dec-10 05:23N 56°42' E 011°49'7 8.6
2014-Dec-10 04:34N 56°49' E 011°49'1111.1
2014-Dec-10 03:34N 56°59' E 011°43'1211.6
2014-Dec-10 02:31N 57°11' E 011°35'1111.6
2014-Dec-10 01:33N 57°21' E 011°28'1212.0
2014-Dec-10 00:34N 57°31' E 011°16'1413.8
2014-Dec-09 23:33N 57°41' E 010°57'1414.4
2014-Dec-09 22:33N 57°50' E 010°37'135 9.4
2014-Dec-09 08:11N 56°33' E 007°13'913.8
2014-Dec-09 07:31N 56°25' E 007°05'  

Dump ship's entire track history